Time;durP1;ratioP1;P1;durP2;ratioP2;P2;SDS_P1;SDS_P2;PMS_P1;PMS_P2;Temp;Humidity;BMP_temperature;BMP_pressure;BME280_temperature;BME280_humidity;BME280_pressure;Samples;Min_cycle;Max_cycle;Signal;HPM_P1;HPM_P2
2020/12/02 00:01:11;;;;;;;19.87;6.50;;;8.70;99.90;;;;;;5117327;28;20618;-95
2020/12/02 00:03:40;;;;;;;16.53;6.50;;;8.70;99.90;;;;;;5117308;28;20200;-94
2020/12/02 00:06:09;;;;;;;11.83;6.43;;;8.60;99.90;;;;;;5117002;28;20231;-90
2020/12/02 00:08:39;;;;;;;21.40;7.00;;;8.70;99.90;;;;;;5116364;28;20235;-92
2020/12/02 00:11:10;;;;;;;18.23;6.77;;;8.80;99.90;;;;;;5116675;28;20201;-94
2020/12/02 00:13:40;;;;;;;16.27;6.63;;;8.80;99.90;;;;;;5116592;28;20218;-91
2020/12/02 00:16:08;;;;;;;18.10;7.00;;;8.70;99.90;;;;;;5099410;28;20247;-92
2020/12/02 00:18:36;;;;;;;17.93;7.30;;;8.60;99.90;;;;;;5116667;28;20220;-93
2020/12/02 00:21:03;;;;;;;16.50;7.30;;;8.70;99.90;;;;;;5117497;28;20200;-92
2020/12/02 00:23:29;;;;;;;17.80;7.30;;;8.60;99.90;;;;;;5098790;28;20210;-91
2020/12/02 00:25:55;;;;;;;12.40;7.60;;;8.40;99.90;;;;;;5116757;28;20224;-93
2020/12/02 00:28:22;;;;;;;14.27;7.87;;;8.30;99.90;;;;;;5115701;28;20224;-90
2020/12/02 00:30:49;;;;;;;19.97;7.70;;;8.30;99.90;;;;;;5116899;28;20214;-92
2020/12/02 00:33:19;;;;;;;14.17;7.93;;;8.20;99.90;;;;;;5098285;28;20196;-92
2020/12/02 00:35:46;;;;;;;17.80;8.67;;;8.30;99.90;;;;;;5098486;28;20674;-92
2020/12/02 00:38:14;;;;;;;14.20;8.37;;;8.40;99.90;;;;;;5098885;28;20229;-90
2020/12/02 00:40:45;;;;;;;19.87;9.07;;;8.40;99.90;;;;;;5116445;28;20238;-93
2020/12/02 00:43:12;;;;;;;18.53;9.03;;;8.50;99.90;;;;;;5117119;28;20204;-92
2020/12/02 00:45:39;;;;;;;19.03;9.43;;;8.50;99.90;;;;;;5116354;28;20246;-91
2020/12/02 00:48:13;;;;;;;16.53;9.50;;;8.50;99.90;;;;;;5116199;28;20221;-91
2020/12/02 00:50:40;;;;;;;17.17;9.53;;;8.50;99.90;;;;;;5116704;28;20287;-90
2020/12/02 00:53:09;;;;;;;12.37;9.17;;;8.60;99.90;;;;;;5116764;28;20289;-93
2020/12/02 00:55:36;;;;;;;19.07;10.27;;;8.70;99.90;;;;;;5116000;28;20204;-91
2020/12/02 00:58:04;;;;;;;17.27;9.60;;;8.60;99.90;;;;;;5116097;28;20311;-90
2020/12/02 01:00:41;;;;;;;21.10;10.63;;;8.50;99.90;;;;;;5115690;28;20643;-93
2020/12/02 01:03:14;;;;;;;16.90;10.27;;;8.40;99.90;;;;;;5117451;28;20272;-91
2020/12/02 01:05:40;;;;;;;15.73;10.80;;;8.50;99.90;;;;;;5118572;28;20235;-91
2020/12/02 01:08:19;;;;;;;15.57;10.53;;;8.50;99.90;;;;;;5099505;28;20224;-92
2020/12/02 01:10:48;;;;;;;14.67;9.97;;;8.50;99.90;;;;;;5116443;28;20204;-92
2020/12/02 01:13:14;;;;;;;16.30;10.93;;;8.30;99.90;;;;;;5115423;28;20202;-92
2020/12/02 01:15:42;;;;;;;15.10;10.43;;;8.30;99.90;;;;;;5115774;28;20281;-92
2020/12/02 01:18:19;;;;;;;16.07;10.80;;;8.40;99.90;;;;;;5114985;28;20228;-93
2020/12/02 01:20:47;;;;;;;15.27;10.20;;;8.50;99.90;;;;;;5114877;28;20192;-94
2020/12/02 01:23:16;;;;;;;16.03;10.53;;;8.60;99.90;;;;;;5115300;28;20319;-94
2020/12/02 01:25:44;;;;;;;18.90;11.43;;;8.60;99.90;;;;;;5115276;28;20239;-92
2020/12/02 01:28:18;;;;;;;13.97;10.50;;;8.60;99.90;;;;;;5115055;28;20220;-91
2020/12/02 01:30:45;;;;;;;18.93;10.57;;;8.70;99.90;;;;;;5115254;28;20200;-92
2020/12/02 01:33:15;;;;;;;14.07;10.40;;;8.70;99.90;;;;;;5114960;28;20677;-90
2020/12/02 01:35:46;;;;;;;14.20;11.20;;;8.60;99.90;;;;;;5115636;28;20638;-93
2020/12/02 01:38:18;;;;;;;15.37;11.13;;;8.70;99.90;;;;;;5115153;28;20220;-90
2020/12/02 01:40:44;;;;;;;15.10;10.13;;;8.70;99.90;;;;;;5096965;28;20196;-91
2020/12/02 01:43:12;;;;;;;13.83;10.47;;;8.60;99.90;;;;;;5115153;28;20191;-90
2020/12/02 01:45:42;;;;;;;16.03;10.80;;;8.60;99.90;;;;;;5115043;28;20259;-93
2020/12/02 01:48:50;;;;;;;17.10;10.50;;;8.70;99.90;;;;;;5114900;28;20311;-92
2020/12/02 01:51:29;;;;;;;13.47;10.43;;;8.80;99.90;;;;;;5115032;28;20211;-93
2020/12/02 01:54:02;;;;;;;14.10;10.77;;;8.80;99.90;;;;;;5115152;28;20193;-93
2020/12/02 01:56:37;;;;;;;17.83;11.00;;;8.80;99.90;;;;;;5115552;28;20208;-92
2020/12/02 01:59:15;;;;;;;15.53;10.80;;;8.80;99.90;;;;;;5115098;28;20230;-92
2020/12/02 02:02:02;;;;;;;17.63;11.03;;;8.80;99.90;;;;;;5096928;28;20204;-92
2020/12/02 02:04:37;;;;;;;13.27;10.13;;;8.80;99.90;;;;;;5114867;28;20279;-91
2020/12/02 02:07:07;;;;;;;16.83;10.80;;;8.70;99.90;;;;;;5114859;28;20619;-91
2020/12/02 02:09:34;;;;;;;12.80;10.07;;;8.70;99.90;;;;;;5115290;28;20326;-93
2020/12/02 02:12:28;;;;;;;16.13;10.57;;;8.80;99.90;;;;;;5115782;28;20291;-91
2020/12/02 02:15:06;;;;;;;16.93;10.63;;;8.80;99.90;;;;;;5114943;28;20204;-90
2020/12/02 02:17:33;;;;;;;16.20;10.93;;;8.60;99.90;;;;;;5114585;28;20259;-94
2020/12/02 02:20:00;;;;;;;16.20;10.63;;;8.50;99.90;;;;;;5114789;28;20235;-92
2020/12/02 02:22:27;;;;;;;15.53;10.83;;;8.50;99.90;;;;;;5115607;28;20224;-91
2020/12/02 02:24:55;;;;;;;17.10;11.70;;;8.60;99.90;;;;;;5114713;28;20209;-92
2020/12/02 02:27:25;;;;;;;18.53;11.27;;;8.50;99.90;;;;;;5114561;28;20188;-89
2020/12/02 02:29:52;;;;;;;16.40;10.30;;;8.40;99.90;;;;;;5114319;28;20207;-89
2020/12/02 02:32:22;;;;;;;14.30;11.10;;;8.40;99.90;;;;;;5116704;28;20192;-92
2020/12/02 02:34:52;;;;;;;18.17;10.80;;;8.40;99.90;;;;;;5118552;28;20189;-91
2020/12/02 02:37:23;;;;;;;17.13;10.70;;;8.50;99.90;;;;;;5119320;28;20200;-92
2020/12/02 02:39:50;;;;;;;14.00;10.63;;;8.50;99.90;;;;;;5120198;28;20223;-91
2020/12/02 02:42:31;;;;;;;13.60;10.67;;;8.50;99.90;;;;;;5122312;28;20203;-91
2020/12/02 02:44:59;;;;;;;14.60;11.13;;;8.50;99.90;;;;;;5122333;28;20212;-91
2020/12/02 02:47:25;;;;;;;15.50;10.53;;;8.60;99.90;;;;;;5118170;28;20320;-93
2020/12/02 02:49:52;;;;;;;20.03;11.70;;;8.60;99.90;;;;;;5118682;28;20673;-91
2020/12/02 02:52:19;;;;;;;19.10;12.87;;;8.40;99.90;;;;;;5118960;28;20193;-92
2020/12/02 02:54:45;;;;;;;20.13;12.87;;;8.50;99.90;;;;;;5118533;28;20287;-92
2020/12/02 02:57:12;;;;;;;19.97;13.53;;;8.60;99.90;;;;;;5118944;28;20208;-92
2020/12/02 02:59:39;;;;;;;18.47;12.93;;;8.70;99.90;;;;;;5101037;28;20208;-92
2020/12/02 03:02:06;;;;;;;19.80;13.17;;;8.60;99.90;;;;;;5119239;28;20226;-91
2020/12/02 03:04:32;;;;;;;15.33;12.30;;;8.50;99.90;;;;;;5118310;28;20213;-93
2020/12/02 03:07:00;;;;;;;15.17;11.67;;;8.50;99.90;;;;;;5118214;28;20238;-92
2020/12/02 03:09:26;;;;;;;17.20;12.37;;;8.50;99.90;;;;;;5118646;28;20228;-93
2020/12/02 03:11:55;;;;;;;19.43;12.40;;;8.40;99.90;;;;;;5117924;28;20205;-92
2020/12/02 03:14:22;;;;;;;15.97;12.27;;;8.40;99.90;;;;;;5118914;28;20204;-92
2020/12/02 03:16:53;;;;;;;15.80;12.40;;;8.40;99.90;;;;;;5118542;28;20239;-90
2020/12/02 03:19:22;;;;;;;15.87;12.17;;;8.40;99.90;;;;;;5117898;28;20302;-92
2020/12/02 03:21:50;;;;;;;14.00;11.10;;;8.50;99.90;;;;;;5118052;28;20291;-91
2020/12/02 03:24:16;;;;;;;12.53;11.03;;;8.40;99.90;;;;;;5117669;28;20208;-92
2020/12/02 03:26:43;;;;;;;14.47;12.30;;;8.50;99.90;;;;;;5117409;28;20254;-91
2020/12/02 03:29:09;;;;;;;15.90;11.43;;;8.50;99.90;;;;;;5117976;28;20335;-90
2020/12/02 03:31:36;;;;;;;18.40;12.77;;;8.50;99.90;;;;;;5118883;28;20208;-91
2020/12/02 03:34:06;;;;;;;14.17;12.17;;;8.50;99.90;;;;;;5118294;28;20238;-93
2020/12/02 03:36:32;;;;;;;19.40;12.50;;;8.50;99.90;;;;;;5117975;28;20223;-92
2020/12/02 03:38:58;;;;;;;16.90;12.70;;;8.40;99.90;;;;;;5118336;28;20585;-91
2020/12/02 03:41:25;;;;;;;13.67;11.63;;;8.30;99.90;;;;;;5118124;28;20555;-91
2020/12/02 03:43:51;;;;;;;14.43;12.53;;;8.10;99.90;;;;;;5117928;28;20216;-92
2020/12/02 03:46:18;;;;;;;17.00;12.73;;;8.10;99.90;;;;;;5117620;28;20240;-92
2020/12/02 03:48:44;;;;;;;17.83;12.63;;;8.40;99.90;;;;;;5117779;28;20303;-91
2020/12/02 03:51:12;;;;;;;14.97;12.83;;;8.30;99.90;;;;;;5118341;28;20681;-93
2020/12/02 03:53:38;;;;;;;15.07;12.67;;;8.30;99.90;;;;;;5117798;28;20367;-92
2020/12/02 03:56:05;;;;;;;15.40;12.23;;;8.30;99.90;;;;;;5117949;28;20200;-91
2020/12/02 03:58:31;;;;;;;22.27;12.83;;;8.40;99.90;;;;;;5117742;28;20224;-92
2020/12/02 04:00:57;;;;;;;15.10;13.03;;;8.30;99.90;;;;;;5118078;28;20236;-93
2020/12/02 04:03:24;;;;;;;15.90;12.53;;;8.30;99.90;;;;;;5117794;28;20707;-92
2020/12/02 04:05:51;;;;;;;18.47;13.70;;;8.20;99.90;;;;;;5117609;28;20208;-95
2020/12/02 04:08:18;;;;;;;17.63;13.47;;;8.30;99.90;;;;;;5117277;28;20227;-91
2020/12/02 04:10:45;;;;;;;20.83;13.13;;;8.40;99.90;;;;;;5117485;28;20189;-91
2020/12/02 04:13:11;;;;;;;17.57;13.20;;;8.30;99.90;;;;;;5117680;28;20188;-94
2020/12/02 04:15:38;;;;;;;13.97;12.40;;;8.30;99.90;;;;;;5117462;28;20224;-92
2020/12/02 04:18:05;;;;;;;18.33;13.90;;;8.20;99.90;;;;;;5116885;28;20753;-91
2020/12/02 04:20:31;;;;;;;22.87;13.70;;;8.30;99.90;;;;;;5118087;28;20545;-91
2020/12/02 04:22:57;;;;;;;17.23;12.80;;;8.30;99.90;;;;;;5116738;28;20291;-94
2020/12/02 04:25:26;;;;;;;16.53;13.57;;;8.20;99.90;;;;;;5117628;28;20312;-92
2020/12/02 04:27:54;;;;;;;17.40;13.50;;;8.30;99.90;;;;;;5117706;28;20224;-94
2020/12/02 04:30:22;;;;;;;17.20;14.23;;;8.20;99.90;;;;;;5117446;28;20292;-93
2020/12/02 04:32:49;;;;;;;16.93;13.37;;;8.20;99.90;;;;;;5117517;28;20643;-93
2020/12/02 04:35:18;;;;;;;19.37;13.83;;;8.20;99.90;;;;;;5117155;28;20268;-94
2020/12/02 04:37:45;;;;;;;19.73;13.07;;;8.30;99.90;;;;;;5118168;28;20693;-93
2020/12/02 04:40:15;;;;;;;16.97;12.93;;;8.30;99.90;;;;;;5117496;28;20694;-92
2020/12/02 04:42:47;;;;;;;15.83;13.53;;;8.40;99.90;;;;;;5116334;28;20200;-92
2020/12/02 04:45:16;;;;;;;20.27;13.27;;;8.30;99.90;;;;;;5116245;28;20670;-92
2020/12/02 04:47:44;;;;;;;21.53;14.70;;;8.20;99.90;;;;;;5116139;28;20252;-93
2020/12/02 04:50:17;;;;;;;20.43;13.93;;;8.20;99.90;;;;;;5116178;28;20214;-91
2020/12/02 04:52:58;;;;;;;15.83;12.90;;;8.30;99.90;;;;;;5116102;28;20639;-92
2020/12/02 04:55:24;;;;;;;20.60;14.10;;;8.40;99.90;;;;;;5118158;28;20224;-91
2020/12/02 04:57:52;;;;;;;19.17;13.40;;;8.40;99.90;;;;;;5118630;28;20244;-91
2020/12/02 05:00:27;;;;;;;19.77;13.60;;;8.40;99.90;;;;;;5118214;28;20227;-91
2020/12/02 05:03:04;;;;;;;22.47;13.77;;;8.40;99.90;;;;;;5116138;28;20204;-92
2020/12/02 05:05:30;;;;;;;16.97;13.93;;;8.20;99.90;;;;;;5116314;28;20251;-95
2020/12/02 05:07:57;;;;;;;18.33;13.93;;;8.40;99.90;;;;;;5116139;28;20338;-92
2020/12/02 05:10:23;;;;;;;17.97;13.67;;;8.20;99.90;;;;;;5116473;28;20551;-92
2020/12/02 05:12:50;;;;;;;15.83;13.30;;;8.30;99.90;;;;;;5115896;28;20196;-92
2020/12/02 05:15:22;;;;;;;15.40;13.00;;;8.30;99.90;;;;;;5115620;28;20207;-92
2020/12/02 05:18:05;;;;;;;21.93;13.77;;;8.30;99.90;;;;;;5116221;28;20221;-93
2020/12/02 05:20:32;;;;;;;16.77;12.43;;;8.20;99.90;;;;;;5115639;28;20223;-92
2020/12/02 05:23:10;;;;;;;15.07;12.53;;;8.20;99.90;;;;;;5115871;28;20291;-92
2020/12/02 05:25:36;;;;;;;19.17;13.20;;;8.20;99.90;;;;;;5115495;28;20219;-92
2020/12/02 05:28:17;;;;;;;16.97;13.10;;;8.20;99.90;;;;;;5116090;28;20578;-92
2020/12/02 05:30:44;;;;;;;16.27;13.33;;;8.20;99.90;;;;;;5115464;28;20192;-92
2020/12/02 05:33:22;;;;;;;17.07;12.90;;;8.20;99.90;;;;;;5116297;28;20200;-93
2020/12/02 05:35:52;;;;;;;15.17;12.77;;;8.20;99.90;;;;;;5115603;28;20307;-92
2020/12/02 05:38:26;;;;;;;20.03;13.77;;;8.20;99.90;;;;;;5115233;28;20234;-92
2020/12/02 05:40:55;;;;;;;19.57;14.03;;;8.10;99.90;;;;;;5115548;28;20229;-94
2020/12/02 05:43:31;;;;;;;18.20;14.27;;;8.20;99.90;;;;;;5115954;28;20204;-92
2020/12/02 05:45:59;;;;;;;18.93;14.00;;;8.20;99.90;;;;;;5115646;28;20320;-93
2020/12/02 05:48:31;;;;;;;17.23;13.90;;;8.10;99.90;;;;;;5116145;28;20252;-93
2020/12/02 05:50:57;;;;;;;17.80;13.03;;;8.00;99.90;;;;;;5118788;28;20284;-92
2020/12/02 05:53:29;;;;;;;17.67;12.70;;;8.00;99.90;;;;;;5121514;28;20208;-93
2020/12/02 05:55:57;;;;;;;18.87;13.73;;;8.10;99.90;;;;;;5121934;28;20202;-92
2020/12/02 05:58:28;;;;;;;16.57;13.17;;;8.20;99.90;;;;;;5122354;28;20224;-92
2020/12/02 06:00:55;;;;;;;18.20;12.90;;;8.30;99.90;;;;;;5122375;28;20615;-93
2020/12/02 06:03:26;;;;;;;19.00;13.50;;;8.20;99.90;;;;;;5122175;28;20224;-93
2020/12/02 06:05:59;;;;;;;19.40;13.77;;;8.20;99.90;;;;;;5117709;28;20583;-90
2020/12/02 06:08:34;;;;;;;16.13;12.80;;;8.30;99.90;;;;;;5119169;28;20402;-92
2020/12/02 06:11:23;;;;;;;17.57;13.43;;;8.30;99.90;;;;;;5119796;28;20278;-92
2020/12/02 06:13:53;;;;;;;24.80;14.63;;;8.40;99.90;;;;;;5119375;28;20200;-92
2020/12/02 06:16:37;;;;;;;21.33;13.47;;;8.40;99.90;;;;;;5119224;28;20200;-92
2020/12/02 06:19:18;;;;;;;19.17;13.80;;;8.20;99.90;;;;;;5125777;28;20228;-94
2020/12/02 06:21:46;;;;;;;15.43;12.57;;;8.20;99.90;;;;;;5119704;28;20296;-92
2020/12/02 06:24:15;;;;;;;19.00;13.30;;;8.10;99.90;;;;;;5119639;28;20250;-93
2020/12/02 06:26:44;;;;;;;17.73;13.43;;;8.10;99.90;;;;;;5118641;28;20261;-92
2020/12/02 06:29:26;;;;;;;22.10;14.17;;;8.00;99.90;;;;;;5118520;28;20220;-93
2020/12/02 06:31:58;;;;;;;17.10;13.87;;;8.10;99.90;;;;;;5119739;28;20208;-92
2020/12/02 06:34:28;;;;;;;18.63;12.97;;;8.20;99.90;;;;;;5119213;28;20710;-92
2020/12/02 06:37:09;;;;;;;21.20;13.67;;;8.10;99.90;;;;;;5119113;28;20235;-91
2020/12/02 06:39:38;;;;;;;17.67;13.00;;;8.10;99.90;;;;;;5119194;28;20224;-92
2020/12/02 06:42:23;;;;;;;19.60;13.20;;;8.10;99.90;;;;;;5118802;28;20200;-92
2020/12/02 06:45:10;;;;;;;16.93;13.07;;;8.00;99.90;;;;;;5119047;28;20634;-93
2020/12/02 06:47:54;;;;;;;19.43;13.60;;;8.00;99.90;;;;;;5117885;28;20235;-92
2020/12/02 06:50:24;;;;;;;15.73;12.57;;;8.10;99.90;;;;;;5118156;28;20225;-92
2020/12/02 06:52:51;;;;;;;18.43;12.57;;;8.10;99.90;;;;;;5118224;28;20200;-91
2020/12/02 06:55:22;;;;;;;19.83;13.30;;;8.10;99.90;;;;;;5119794;28;20200;-92
2020/12/02 06:57:55;;;;;;;16.47;13.47;;;8.00;99.90;;;;;;5118974;28;20248;-92
2020/12/02 07:00:26;;;;;;;20.30;14.30;;;8.20;99.90;;;;;;5118855;28;20220;-93
2020/12/02 07:02:59;;;;;;;27.87;14.77;;;8.40;99.90;;;;;;5120179;28;20224;-92
2020/12/02 07:05:37;;;;;;;17.70;13.97;;;8.60;99.90;;;;;;5121066;28;20635;-92
2020/12/02 07:08:09;;;;;;;19.30;16.00;;;8.50;99.90;;;;;;5122000;28;20232;-91
2020/12/02 07:10:36;;;;;;;20.23;14.77;;;8.30;99.90;;;;;;5120807;28;20189;-94
2020/12/02 07:13:03;;;;;;;19.40;14.67;;;8.30;99.90;;;;;;5120884;28;20627;-91
2020/12/02 07:15:31;;;;;;;21.80;15.27;;;8.30;99.90;;;;;;5120851;28;20231;-93
2020/12/02 07:18:10;;;;;;;21.23;16.27;;;8.40;99.90;;;;;;5122378;28;20292;-91
2020/12/02 07:20:37;;;;;;;22.67;15.93;;;8.30;99.90;;;;;;5129629;28;20208;-93
2020/12/02 07:23:09;;;;;;;25.63;16.27;;;8.30;99.90;;;;;;5128635;28;20189;-92
2020/12/02 07:25:36;;;;;;;25.87;15.37;;;8.30;99.90;;;;;;5132285;28;20200;-91
2020/12/02 07:28:02;;;;;;;21.40;16.07;;;8.30;99.90;;;;;;5130969;28;20220;-92
2020/12/02 07:30:35;;;;;;;23.23;15.40;;;8.20;99.90;;;;;;5131234;28;20236;-93
2020/12/02 07:33:28;;;;;;;24.20;16.13;;;8.30;99.90;;;;;;5126934;28;20197;-91
2020/12/02 07:36:13;;;;;;;22.83;16.03;;;8.20;99.90;;;;;;5107059;28;20238;-91
2020/12/02 07:38:40;;;;;;;28.83;15.47;;;8.20;99.90;;;;;;5117440;28;20321;-91
2020/12/02 07:41:11;;;;;;;22.00;15.30;;;8.00;99.90;;;;;;5117829;28;20204;-92
2020/12/02 07:43:42;;;;;;;23.50;15.60;;;8.10;99.90;;;;;;5117988;28;20216;-93
2020/12/02 07:46:10;;;;;;;24.67;16.07;;;8.30;99.90;;;;;;5118412;27;20264;-92
2020/12/02 07:48:38;;;;;;;21.83;15.57;;;8.30;99.90;;;;;;5121891;28;20224;-91
2020/12/02 07:51:10;;;;;;;25.63;16.27;;;8.30;99.90;;;;;;5121886;28;20627;-92
2020/12/02 07:53:43;;;;;;;25.13;16.00;;;8.40;99.90;;;;;;5121184;28;20213;-92
2020/12/02 07:56:17;;;;;;;22.50;15.43;;;8.30;99.90;;;;;;5117296;28;20296;-92
2020/12/02 07:58:45;;;;;;;20.00;15.87;;;8.20;99.90;;;;;;5116996;28;20315;-92
2020/12/02 08:01:30;;;;;;;21.53;16.57;;;8.30;99.90;;;;;;5116918;28;20190;-90
2020/12/02 08:03:57;;;;;;;29.00;15.97;;;8.40;99.90;;;;;;5117507;28;20201;-94
2020/12/02 08:06:34;;;;;;;29.57;18.00;;;8.50;99.90;;;;;;5116889;28;20673;-93
2020/12/02 08:09:00;;;;;;;22.43;16.30;;;8.50;99.90;;;;;;5116825;28;20228;-92
2020/12/02 08:11:27;;;;;;;22.57;16.77;;;8.60;99.90;;;;;;5117580;28;20237;-92
2020/12/02 08:13:59;;;;;;;24.77;15.23;;;8.70;99.90;;;;;;5118073;28;20227;-92
2020/12/02 08:16:28;;;;;;;21.93;17.17;;;8.60;99.90;;;;;;5118603;28;20258;-93
2020/12/02 08:18:57;;;;;;;22.47;16.30;;;8.60;99.90;;;;;;5117125;28;20279;-92
2020/12/02 08:21:27;;;;;;;22.23;16.63;;;8.50;99.90;;;;;;5116901;28;20231;-91
2020/12/02 08:24:16;;;;;;;25.20;16.27;;;8.30;99.90;;;;;;5116564;28;20664;-91
2020/12/02 08:26:44;;;;;;;24.20;16.17;;;8.20;99.90;;;;;;5116162;28;20312;-90
2020/12/02 08:29:11;;;;;;;22.57;15.53;;;8.30;99.90;;;;;;5115854;28;20761;-90
2020/12/02 08:31:39;;;;;;;25.07;15.57;;;8.30;99.90;;;;;;5117051;28;20196;-90
2020/12/02 08:34:11;;;;;;;23.50;16.33;;;8.50;99.90;;;;;;5116328;28;20204;-91
2020/12/02 08:36:39;;;;;;;18.47;14.97;;;8.60;99.90;;;;;;5117211;28;20220;-93
2020/12/02 08:39:06;;;;;;;20.30;15.30;;;8.60;99.90;;;;;;5097963;28;20228;-94
2020/12/02 08:41:41;;;;;;;24.43;15.80;;;8.50;99.90;;;;;;5115555;28;20209;-96
2020/12/02 08:44:10;;;;;;;23.33;16.23;;;8.40;99.90;;;;;;5114499;28;20227;-93
2020/12/02 08:46:52;;;;;;;24.53;16.70;;;8.40;99.90;;;;;;5115341;28;20262;-90
2020/12/02 08:49:20;;;;;;;25.37;16.97;;;8.30;99.90;;;;;;5115894;28;20228;-92
2020/12/02 08:51:47;;;;;;;20.33;15.93;;;8.40;99.90;;;;;;5116145;28;20211;-92
2020/12/02 08:54:16;;;;;;;22.67;16.33;;;8.50;99.90;;;;;;5116489;28;20204;-91
2020/12/02 08:56:44;;;;;;;22.60;15.40;;;8.40;99.90;;;;;;5117832;28;20212;-90
2020/12/02 08:59:13;;;;;;;25.33;16.97;;;8.40;99.90;;;;;;5121469;28;20224;-91
2020/12/02 09:01:40;;;;;;;24.23;17.33;;;8.40;99.90;;;;;;5121044;28;20683;-89
2020/12/02 09:04:08;;;;;;;22.07;16.57;;;8.30;99.90;;;;;;5119138;28;20214;-90
2020/12/02 09:06:34;;;;;;;35.00;17.57;;;8.10;99.90;;;;;;5116395;28;20220;-89
2020/12/02 09:09:01;;;;;;;24.53;16.87;;;8.30;99.90;;;;;;5117029;28;20259;-91
2020/12/02 09:11:32;;;;;;;24.87;17.13;;;8.30;99.90;;;;;;5116429;28;20670;-90
2020/12/02 09:13:59;;;;;;;23.67;16.63;;;8.50;99.90;;;;;;5116580;28;20287;-90
2020/12/02 09:16:29;;;;;;;24.50;17.30;;;8.70;99.90;;;;;;5116308;28;20208;-93
2020/12/02 09:18:56;;;;;;;20.73;15.57;;;8.70;99.90;;;;;;5118140;28;20288;-93
2020/12/02 09:21:24;;;;;;;24.03;16.30;;;8.70;99.90;;;;;;5119803;28;20269;-91
2020/12/02 09:23:51;;;;;;;23.73;16.77;;;8.50;99.90;;;;;;5119443;28;20218;-91
2020/12/02 09:26:20;;;;;;;24.30;17.57;;;8.40;99.90;;;;;;5121592;28;20302;-92
2020/12/02 09:28:47;;;;;;;24.33;17.93;;;8.50;99.90;;;;;;5122917;28;20236;-91
2020/12/02 09:31:14;;;;;;;25.80;18.47;;;8.40;99.90;;;;;;5118089;28;20623;-93
2020/12/02 09:33:44;;;;;;;21.83;17.53;;;8.40;99.90;;;;;;5118639;28;20204;-90
2020/12/02 09:36:10;;;;;;;24.03;17.63;;;8.40;99.90;;;;;;5117611;28;20287;-93
2020/12/02 09:38:38;;;;;;;21.67;17.07;;;8.20;99.90;;;;;;5120823;28;20280;-95
2020/12/02 09:41:45;;;;;;;22.47;17.40;;;8.40;99.90;;;;;;5120440;28;20234;-92
2020/12/02 09:44:36;;;;;;;26.50;17.30;;;8.30;99.90;;;;;;5082159;28;20270;-90
2020/12/02 09:47:06;;;;;;;26.20;17.67;;;8.40;99.90;;;;;;5118631;28;20770;-93
2020/12/02 09:49:35;;;;;;;23.77;17.60;;;8.50;99.90;;;;;;5116066;28;20195;-91
2020/12/02 09:52:29;;;;;;;21.93;17.30;;;8.50;99.90;;;;;;5115922;28;20241;-93
2020/12/02 09:54:55;;;;;;;28.83;17.33;;;8.50;99.90;;;;;;5121230;28;20256;-91
2020/12/02 09:57:24;;;;;;;22.37;17.93;;;8.60;99.90;;;;;;5132980;28;20223;-89
2020/12/02 09:59:51;;;;;;;26.73;18.53;;;8.80;99.90;;;;;;5130661;28;20228;-93
2020/12/02 10:02:47;;;;;;;29.07;17.83;;;8.80;99.90;;;;;;5119580;28;20291;-88
2020/12/02 10:05:47;;;;;;;29.13;22.25;;;8.90;99.90;;;;;;5119764;28;20421;-92
2020/12/02 10:08:37;;;;;;;22.07;16.87;;;8.80;99.90;;;;;;5123355;28;20777;-89
2020/12/02 10:11:16;;;;;;;26.77;19.03;;;8.90;99.90;;;;;;5120971;28;20650;-93
2020/12/02 10:14:10;;;;;;;26.27;17.93;;;8.80;99.90;;;;;;5116321;28;20281;-96
2020/12/02 10:16:44;;;;;;;25.83;17.53;;;8.90;99.90;;;;;;5115361;28;20199;-92
2020/12/02 10:19:40;;;;;;;26.30;18.63;;;9.00;99.90;;;;;;5114784;28;20708;-91
2020/12/02 10:22:29;;;;;;;25.33;18.30;;;9.10;99.90;;;;;;5106773;28;20204;-92
2020/12/02 10:25:38;;;;;;;25.70;18.00;;;9.10;99.90;;;;;;5115195;28;20201;-90
2020/12/02 10:28:27;;;;;;;26.23;19.30;;;9.00;99.90;;;;;;5113851;28;20618;-93
2020/12/02 10:31:10;;;;;;;28.67;18.27;;;8.90;99.90;;;;;;5114433;28;20193;-91
2020/12/02 10:34:00;;;;;;;28.13;18.90;;;8.70;99.90;;;;;;5114498;28;20191;-92
2020/12/02 10:36:29;;;;;;;22.73;18.37;;;8.60;99.90;;;;;;5115038;28;20193;-90
2020/12/02 10:38:59;;;;;;;26.80;18.67;;;8.60;99.90;;;;;;5115417;28;20217;-91
2020/12/02 10:41:40;;;;;;;26.13;18.63;;;8.70;99.90;;;;;;5114881;28;20204;-91
2020/12/02 10:44:20;;;;;;;26.03;18.93;;;8.70;99.90;;;;;;5114952;28;20212;-86
2020/12/02 10:47:20;;;;;;;24.00;18.90;;;8.70;99.90;;;;;;5114241;28;20258;-89
2020/12/02 10:49:47;;;;;;;23.67;19.27;;;8.70;99.90;;;;;;5115461;28;20209;-93
2020/12/02 10:52:15;;;;;;;26.67;19.93;;;8.80;99.90;;;;;;5114808;28;20193;-89
2020/12/02 10:58:25;;;;;;;26.40;17.70;;;9.00;99.90;;;;;;5126075;28;20228;-91
2020/12/02 11:05:20;;;;;;;24.37;18.97;;;9.10;99.90;;;;;;5173279;22;20221;-85
2020/12/02 11:08:14;;;;;;;28.37;20.57;;;9.20;99.90;;;;;;5112846;28;20246;-89
2020/12/02 11:10:51;;;;;;;31.83;24.52;;;9.30;99.90;;;;;;5117938;28;20492;-90
2020/12/02 11:13:29;;;;;;;28.30;22.73;;;9.30;99.90;;;;;;5117462;28;20189;-91
2020/12/02 11:15:58;;;;;;;26.10;21.33;;;9.30;99.90;;;;;;5118049;28;20204;-91
2020/12/02 11:18:55;;;;;;;28.57;21.13;;;9.30;99.90;;;;;;5117689;28;20224;-90
2020/12/02 11:21:40;;;;;;;26.27;20.70;;;9.20;99.90;;;;;;5117480;28;20220;-90
2020/12/02 11:24:38;;;;;;;29.47;20.73;;;9.10;99.90;;;;;;5117352;28;20253;-92
2020/12/02 11:27:04;;;;;;;26.43;21.80;;;9.20;99.90;;;;;;5117140;28;20307;-90
2020/12/02 11:29:32;;;;;;;26.87;21.47;;;9.30;99.90;;;;;;5117681;28;20227;-89
2020/12/02 11:32:32;;;;;;;28.23;22.47;;;9.40;99.90;;;;;;5118445;28;20208;-90
2020/12/02 11:35:14;;;;;;;32.30;21.00;;;9.50;99.90;;;;;;5106144;28;20212;-91
2020/12/02 11:37:48;;;;;;;26.60;21.23;;;9.60;99.90;;;;;;5117090;28;20307;-89
2020/12/02 11:40:18;;;;;;;28.43;22.53;;;9.70;99.90;;;;;;5117210;27;20643;-90
2020/12/02 11:42:49;;;;;;;30.67;23.53;;;9.80;99.90;;;;;;5117515;27;20567;-90
2020/12/02 11:45:20;;;;;;;30.47;23.30;;;9.80;99.90;;;;;;5118985;28;20611;-90
2020/12/02 11:48:00;;;;;;;29.20;23.03;;;9.70;99.90;;;;;;5128455;28;20781;-90
2020/12/02 11:50:30;;;;;;;28.37;23.30;;;10.00;99.90;;;;;;5119015;28;20204;-93
2020/12/02 11:53:06;;;;;;;30.10;23.33;;;10.30;99.90;;;;;;5117182;28;20646;-91
2020/12/02 11:55:35;;;;;;;32.10;23.20;;;10.20;99.90;;;;;;5116816;28;20231;-90
2020/12/02 11:58:06;;;;;;;33.27;23.63;;;10.10;99.90;;;;;;5117432;28;20243;-90
2020/12/02 12:00:33;;;;;;;28.37;22.13;;;10.20;99.90;;;;;;5116857;28;20287;-91
2020/12/02 12:03:21;;;;;;;35.93;24.53;;;10.10;99.90;;;;;;5115059;28;20447;-92
2020/12/02 12:05:58;;;;;;;32.13;24.20;;;10.00;99.90;;;;;;5118555;28;20209;-92
2020/12/02 12:08:41;;;;;;;28.60;24.00;;;10.00;99.90;;;;;;5117685;28;20236;-90
2020/12/02 12:11:11;;;;;;;30.80;24.43;;;10.00;99.90;;;;;;5117613;28;20301;-89
2020/12/02 12:13:41;;;;;;;35.83;28.30;;;10.20;99.90;;;;;;5116627;28;20205;-90
2020/12/02 12:16:15;;;;;;;35.67;26.73;;;10.00;99.90;;;;;;5116342;28;20184;-91
2020/12/02 12:18:50;;;;;;;32.07;26.40;;;9.70;99.90;;;;;;5115949;28;20224;-90
2020/12/02 12:21:28;;;;;;;36.87;25.67;;;9.60;99.90;;;;;;5116141;28;20287;-90
2020/12/02 12:23:58;;;;;;;31.03;25.00;;;9.50;99.90;;;;;;5115781;28;20210;-92
2020/12/02 12:26:27;;;;;;;33.20;26.70;;;9.60;99.90;;;;;;5116889;28;20200;-89
2020/12/02 12:28:53;;;;;;;33.40;24.13;;;9.60;99.90;;;;;;5115977;28;20250;-89
2020/12/02 12:31:30;;;;;;;31.50;24.67;;;9.80;99.90;;;;;;5115791;28;20295;-86
2020/12/02 12:34:02;;;;;;;33.23;25.63;;;9.80;99.90;;;;;;5115712;28;20204;-87
2020/12/02 12:36:31;;;;;;;34.27;25.80;;;9.90;99.90;;;;;;5115936;28;20203;-89
2020/12/02 12:39:02;;;;;;;33.90;25.00;;;9.50;99.90;;;;;;5115917;28;20227;-89
2020/12/02 12:41:34;;;;;;;38.33;27.43;;;9.70;99.90;;;;;;5115852;28;20193;-89
2020/12/02 12:44:08;;;;;;;36.20;26.70;;;9.70;99.90;;;;;;5115629;27;20204;-92
2020/12/02 12:46:42;;;;;;;33.50;24.83;;;9.60;99.90;;;;;;5117593;28;20252;-89
2020/12/02 12:49:11;;;;;;;35.00;25.97;;;9.50;99.90;;;;;;5116037;28;20232;-90
2020/12/02 12:51:38;;;;;;;36.53;26.50;;;9.50;99.90;;;;;;5116022;28;20208;-89
2020/12/02 12:54:13;;;;;;;33.53;24.97;;;9.40;99.90;;;;;;5117039;28;20188;-88
2020/12/02 12:56:41;;;;;;;36.50;26.97;;;9.50;99.90;;;;;;5115868;28;20662;-89
2020/12/02 12:59:11;;;;;;;38.70;26.77;;;9.50;99.90;;;;;;5115423;28;20224;-88
2020/12/02 13:01:40;;;;;;;38.73;26.10;;;9.60;99.90;;;;;;5114838;28;20192;-84
2020/12/02 13:04:07;;;;;;;31.77;25.40;;;9.60;99.90;;;;;;5114431;28;20265;-84
2020/12/02 13:06:52;;;;;;;33.67;25.17;;;9.50;99.90;;;;;;5114800;28;20231;-86
2020/12/02 13:09:30;;;;;;;34.47;23.77;;;9.50;99.90;;;;;;5114395;28;20265;-88
2020/12/02 13:12:04;;;;;;;29.80;22.30;;;9.40;99.90;;;;;;5114762;28;20382;-86